Time;durP1;ratioP1;P1;durP2;ratioP2;P2;SDS_P1;SDS_P2;PMS_P1;PMS_P2;Temp;Humidity;BMP_temperature;BMP_pressure;BME280_temperature;BME280_humidity;BME280_pressure;Samples;Min_cycle;Max_cycle;Signal;HPM_P1;HPM_P2
2021/09/23 00:01:01;;;;;;;23.10;18.87;;;15.00;99.90;;;;;;5047324;28;20193;-67
2021/09/23 00:05:56;;;;;;;17.73;15.83;;;15.00;99.90;;;;;;5018168;28;20452;-70
2021/09/23 00:08:23;;;;;;;18.60;16.17;;;14.90;99.90;;;;;;5036968;28;20463;-66
2021/09/23 00:10:48;;;;;;;17.60;15.70;;;14.80;99.90;;;;;;5035901;28;20953;-67
2021/09/23 00:13:15;;;;;;;19.90;16.03;;;14.80;99.90;;;;;;5017409;28;20442;-66
2021/09/23 00:15:41;;;;;;;17.50;15.70;;;14.80;99.90;;;;;;5018232;28;20417;-66
2021/09/23 00:18:13;;;;;;;19.30;16.57;;;14.80;99.90;;;;;;5035308;28;20423;-66
2021/09/23 00:20:41;;;;;;;19.13;17.23;;;14.80;99.90;;;;;;5031132;28;20423;-66
2021/09/23 00:23:08;;;;;;;17.93;16.13;;;14.80;99.90;;;;;;5034868;28;20423;-66
2021/09/23 00:25:34;;;;;;;18.50;16.50;;;14.80;99.90;;;;;;5018068;28;20505;-66
2021/09/23 00:28:02;;;;;;;17.90;15.50;;;14.80;99.90;;;;;;5047756;28;20419;-66
2021/09/23 00:30:28;;;;;;;20.03;16.67;;;14.70;99.90;;;;;;5055473;28;20498;-66
2021/09/23 00:32:55;;;;;;;18.73;16.83;;;14.70;99.90;;;;;;5037489;28;20440;-72
2021/09/23 00:35:21;;;;;;;19.37;16.27;;;14.70;99.90;;;;;;5054918;28;20206;-66
2021/09/23 00:37:47;;;;;;;18.87;16.40;;;14.80;99.90;;;;;;5043999;28;20426;-66
2021/09/23 00:40:13;;;;;;;18.20;16.40;;;14.80;99.90;;;;;;5017045;28;20417;-66
2021/09/23 00:42:41;;;;;;;19.90;16.53;;;14.80;99.90;;;;;;5017078;28;20436;-66
2021/09/23 00:45:09;;;;;;;18.50;16.57;;;14.80;99.90;;;;;;5033730;28;20522;-67
2021/09/23 00:47:35;;;;;;;19.07;16.93;;;14.80;99.90;;;;;;5035608;28;20786;-66
2021/09/23 00:50:00;;;;;;;17.70;15.90;;;14.80;99.90;;;;;;5034376;28;20465;-67
2021/09/23 00:52:31;;;;;;;19.07;16.63;;;14.80;99.90;;;;;;5017567;28;20432;-66
2021/09/23 00:54:57;;;;;;;17.03;15.33;;;14.80;99.90;;;;;;5034831;28;20249;-74
2021/09/23 00:57:24;;;;;;;21.30;16.37;;;14.80;99.90;;;;;;5042158;28;20435;-66
2021/09/23 00:59:54;;;;;;;19.13;16.07;;;14.80;99.90;;;;;;5055000;28;20412;-66
2021/09/23 01:02:20;;;;;;;17.90;16.00;;;14.80;99.90;;;;;;5054291;28;20423;-66
2021/09/23 01:04:46;;;;;;;17.77;15.60;;;14.80;99.90;;;;;;5055035;28;20408;-66
2021/09/23 01:07:17;;;;;;;20.80;16.67;;;14.80;99.90;;;;;;5047814;28;20426;-66
2021/09/23 01:09:51;;;;;;;18.23;16.33;;;14.80;99.90;;;;;;5034588;28;20540;-66
2021/09/23 01:12:19;;;;;;;18.20;16.20;;;14.70;99.90;;;;;;5033704;28;20421;-66
2021/09/23 01:14:46;;;;;;;18.60;16.70;;;14.70;99.90;;;;;;5034813;28;20418;-66
2021/09/23 01:17:12;;;;;;;20.83;18.30;;;14.70;99.90;;;;;;5039107;28;20428;-66
2021/09/23 01:19:39;;;;;;;18.40;16.50;;;14.70;99.90;;;;;;5054559;28;20414;-66
2021/09/23 01:22:06;;;;;;;17.80;16.00;;;14.70;99.90;;;;;;5053789;28;20942;-66
2021/09/23 01:24:32;;;;;;;19.47;15.00;;;14.70;99.90;;;;;;5054451;28;20420;-66
2021/09/23 01:26:57;;;;;;;19.00;17.17;;;14.70;99.90;;;;;;5050493;28;20424;-73
2021/09/23 01:29:24;;;;;;;17.50;15.60;;;14.60;99.90;;;;;;5033775;28;20458;-66
2021/09/23 01:31:51;;;;;;;19.20;16.30;;;14.60;99.90;;;;;;5034410;28;20180;-66
2021/09/23 01:34:17;;;;;;;17.80;16.00;;;14.60;99.90;;;;;;5033378;28;20927;-66
2021/09/23 01:36:43;;;;;;;17.63;15.77;;;14.50;99.90;;;;;;5034994;28;20413;-66
2021/09/23 01:39:09;;;;;;;19.27;16.77;;;14.50;99.90;;;;;;5053111;28;20951;-66
2021/09/23 01:41:34;;;;;;;17.50;15.70;;;14.50;99.90;;;;;;5054155;28;20181;-66
2021/09/23 01:44:01;;;;;;;19.33;16.60;;;14.50;99.90;;;;;;5053502;28;20177;-74
2021/09/23 01:46:27;;;;;;;18.57;16.57;;;14.50;99.70;;;;;;5053690;28;20470;-66
2021/09/23 01:48:52;;;;;;;19.23;16.67;;;14.40;99.90;;;;;;5035269;28;20426;-66
2021/09/23 01:51:18;;;;;;;19.20;16.07;;;14.40;99.90;;;;;;5033207;28;20208;-66
2021/09/23 01:53:44;;;;;;;21.57;16.77;;;14.40;99.90;;;;;;5034058;28;20174;-66
2021/09/23 01:56:10;;;;;;;20.30;16.67;;;14.40;99.90;;;;;;5033171;28;20174;-66
2021/09/23 01:58:36;;;;;;;16.53;14.83;;;14.40;99.90;;;;;;5044541;28;20208;-66
2021/09/23 02:01:02;;;;;;;18.93;16.97;;;14.40;99.90;;;;;;5053141;28;20760;-73
2021/09/23 02:03:27;;;;;;;18.50;16.70;;;14.30;99.60;;;;;;5036135;28;20956;-66
2021/09/23 02:05:53;;;;;;;19.23;17.00;;;14.30;99.70;;;;;;5053413;28;20423;-66
2021/09/23 02:08:19;;;;;;;19.73;17.33;;;14.20;99.70;;;;;;5052221;28;20250;-66
2021/09/23 02:10:44;;;;;;;20.80;17.60;;;14.20;99.90;;;;;;5053420;28;20205;-66
2021/09/23 02:13:10;;;;;;;24.37;18.40;;;14.20;99.90;;;;;;5052749;28;20654;-66
2021/09/23 02:15:36;;;;;;;21.40;17.83;;;14.20;99.90;;;;;;5053160;28;20186;-66
2021/09/23 02:18:02;;;;;;;22.50;19.90;;;14.10;99.90;;;;;;5052663;28;20554;-73
2021/09/23 02:20:28;;;;;;;26.27;20.63;;;14.10;99.90;;;;;;5042565;28;20267;-66
2021/09/23 02:22:54;;;;;;;24.50;19.50;;;14.20;99.90;;;;;;5033499;28;20468;-66
2021/09/23 02:25:19;;;;;;;23.83;20.83;;;14.10;99.90;;;;;;5032374;28;20872;-66
2021/09/23 02:27:45;;;;;;;25.03;19.77;;;14.10;99.90;;;;;;5032890;28;20224;-66
2021/09/23 02:30:12;;;;;;;23.37;19.27;;;14.20;99.90;;;;;;5032447;28;20218;-66
2021/09/23 02:32:38;;;;;;;21.20;18.60;;;14.30;99.90;;;;;;5042749;28;20231;-66
2021/09/23 02:35:05;;;;;;;23.37;20.30;;;14.20;99.90;;;;;;5052510;28;20417;-74
2021/09/23 02:37:31;;;;;;;22.90;17.20;;;14.20;99.90;;;;;;5034852;28;20188;-66
2021/09/23 02:39:57;;;;;;;23.20;17.80;;;14.30;99.90;;;;;;5052958;28;20463;-66
2021/09/23 02:42:24;;;;;;;19.53;17.37;;;14.30;99.90;;;;;;5052219;28;20396;-66
2021/09/23 02:44:51;;;;;;;19.80;17.40;;;14.20;99.90;;;;;;5040202;28;20486;-66
2021/09/23 02:47:17;;;;;;;20.77;17.80;;;14.30;99.90;;;;;;5048450;28;20803;-66
2021/09/23 02:49:42;;;;;;;22.70;18.80;;;14.20;99.90;;;;;;5052790;28;20464;-66
2021/09/23 02:52:08;;;;;;;25.33;20.57;;;14.20;99.90;;;;;;5052032;28;20507;-66
2021/09/23 02:54:34;;;;;;;25.77;21.27;;;14.30;99.90;;;;;;5051523;28;20223;-66
2021/09/23 02:57:00;;;;;;;26.00;22.83;;;14.20;99.90;;;;;;5064818;28;20172;-66
2021/09/23 02:59:25;;;;;;;27.37;24.27;;;14.10;99.90;;;;;;5071950;28;20623;-66
2021/09/23 03:01:51;;;;;;;28.93;23.40;;;14.10;99.90;;;;;;5072685;28;20801;-66
2021/09/23 03:04:17;;;;;;;27.70;23.67;;;14.10;99.90;;;;;;5071591;28;20181;-66
2021/09/23 03:06:43;;;;;;;24.83;22.23;;;14.10;99.90;;;;;;5072772;28;20622;-67
2021/09/23 03:09:08;;;;;;;25.70;22.93;;;14.10;99.90;;;;;;5061117;28;20188;-68
2021/09/23 03:11:35;;;;;;;23.60;21.10;;;14.10;99.90;;;;;;5052696;28;20271;-67
2021/09/23 03:14:01;;;;;;;25.63;22.80;;;14.10;99.90;;;;;;5051194;28;20473;-68
2021/09/23 03:16:26;;;;;;;23.63;21.10;;;14.10;99.90;;;;;;5051728;28;20790;-68
2021/09/23 03:18:52;;;;;;;23.60;20.50;;;14.10;99.90;;;;;;5052338;28;20265;-68
2021/09/23 03:21:19;;;;;;;24.20;21.13;;;14.10;99.90;;;;;;5063403;28;20181;-68
2021/09/23 03:23:45;;;;;;;24.10;21.43;;;14.20;99.90;;;;;;5072456;28;20255;-68
2021/09/23 03:26:11;;;;;;;22.43;20.10;;;14.20;99.90;;;;;;5071570;28;20422;-67
2021/09/23 03:28:38;;;;;;;21.20;18.53;;;14.20;99.90;;;;;;5072263;28;20410;-68
2021/09/23 03:31:04;;;;;;;23.80;18.70;;;14.20;99.90;;;;;;5071835;28;20210;-75
2021/09/23 03:33:30;;;;;;;24.93;19.20;;;14.20;99.90;;;;;;5059598;28;20470;-67
2021/09/23 03:35:55;;;;;;;21.47;18.27;;;14.20;99.90;;;;;;5052198;28;20178;-67
2021/09/23 03:38:21;;;;;;;17.03;14.93;;;14.20;99.90;;;;;;5051104;28;20177;-68
2021/09/23 03:40:48;;;;;;;17.57;15.67;;;14.20;99.90;;;;;;5051709;28;20192;-68
2021/09/23 03:43:18;;;;;;;17.30;14.60;;;14.20;99.90;;;;;;5058676;28;20183;-68
2021/09/23 03:45:45;;;;;;;15.90;14.40;;;14.20;99.90;;;;;;5065416;28;20544;-68
2021/09/23 03:48:11;;;;;;;17.57;15.40;;;14.30;99.90;;;;;;5033236;28;20475;-68
2021/09/23 03:50:37;;;;;;;16.87;15.13;;;14.30;99.90;;;;;;5051988;28;20547;-68
2021/09/23 03:53:03;;;;;;;16.33;14.27;;;14.40;99.90;;;;;;5034124;28;20191;-68
2021/09/23 03:55:29;;;;;;;16.33;13.73;;;14.40;99.90;;;;;;5039246;28;20472;-68
2021/09/23 03:57:55;;;;;;;15.20;13.60;;;14.40;99.90;;;;;;5032094;28;20433;-68
2021/09/23 04:00:23;;;;;;;14.63;13.20;;;14.50;99.90;;;;;;5031339;28;20251;-68
2021/09/23 04:02:49;;;;;;;16.57;13.00;;;14.60;99.90;;;;;;5032068;28;20171;-68
2021/09/23 04:05:15;;;;;;;18.03;13.43;;;14.60;99.90;;;;;;5031187;28;20761;-68
2021/09/23 04:07:41;;;;;;;14.80;13.37;;;14.70;99.90;;;;;;5032675;28;20427;-68
2021/09/23 04:10:08;;;;;;;14.13;12.73;;;14.60;99.90;;;;;;5031653;28;20452;-75
2021/09/23 04:12:35;;;;;;;15.83;12.87;;;14.70;99.90;;;;;;5014285;28;20174;-68
2021/09/23 04:15:01;;;;;;;15.10;13.57;;;14.60;99.90;;;;;;5031951;28;20418;-67
2021/09/23 04:17:27;;;;;;;14.63;13.03;;;14.60;99.90;;;;;;5030757;28;20763;-68
2021/09/23 04:19:52;;;;;;;15.17;13.50;;;14.60;99.90;;;;;;5031613;28;20497;-68
2021/09/23 04:22:19;;;;;;;16.20;14.63;;;14.60;99.90;;;;;;5031012;28;20585;-68
2021/09/23 04:24:45;;;;;;;17.10;15.40;;;14.50;99.90;;;;;;5014255;28;20183;-68
2021/09/23 04:27:11;;;;;;;17.10;15.40;;;14.50;99.90;;;;;;5047259;28;20980;-75
2021/09/23 04:29:39;;;;;;;15.63;14.03;;;14.60;99.90;;;;;;5034015;28;20221;-68
2021/09/23 04:32:06;;;;;;;15.23;13.63;;;14.60;99.90;;;;;;5051647;28;20409;-68
2021/09/23 04:34:32;;;;;;;14.13;12.73;;;14.50;99.90;;;;;;5033390;28;20455;-68
2021/09/23 04:36:58;;;;;;;15.83;14.00;;;14.50;99.90;;;;;;5051547;28;20421;-67
2021/09/23 04:39:24;;;;;;;17.80;13.40;;;14.50;99.90;;;;;;5032838;28;20244;-68
2021/09/23 04:41:49;;;;;;;14.47;12.97;;;14.50;99.90;;;;;;5031756;28;20242;-67
2021/09/23 04:44:15;;;;;;;14.83;13.60;;;14.40;99.90;;;;;;5033358;28;20638;-68
2021/09/23 04:46:41;;;;;;;12.70;11.40;;;14.40;99.90;;;;;;5041426;28;20226;-67
2021/09/23 04:49:07;;;;;;;14.40;12.33;;;14.40;99.90;;;;;;5055231;28;20201;-67
2021/09/23 04:51:32;;;;;;;14.53;13.03;;;14.40;99.90;;;;;;5073150;28;20219;-68
2021/09/23 04:54:00;;;;;;;15.57;13.43;;;14.40;99.90;;;;;;5075154;28;20677;-68
2021/09/23 04:56:26;;;;;;;15.30;13.83;;;14.30;99.90;;;;;;5074018;28;20549;-68
2021/09/23 04:58:52;;;;;;;14.00;12.67;;;14.30;99.90;;;;;;5074987;28;20828;-68
2021/09/23 05:01:18;;;;;;;14.73;12.73;;;14.30;99.90;;;;;;5063740;28;20518;-68
2021/09/23 05:03:44;;;;;;;15.70;13.20;;;14.30;99.90;;;;;;5057474;28;20184;-68
2021/09/23 05:06:09;;;;;;;17.00;12.87;;;14.30;99.90;;;;;;5074767;28;20405;-74
2021/09/23 05:08:35;;;;;;;15.90;13.10;;;14.30;99.90;;;;;;5074412;28;20173;-68
2021/09/23 05:11:01;;;;;;;15.67;13.37;;;14.30;99.90;;;;;;5064877;28;20470;-67
2021/09/23 05:13:27;;;;;;;13.97;12.57;;;14.40;99.90;;;;;;5054030;28;20172;-68
2021/09/23 05:15:53;;;;;;;14.23;12.80;;;14.40;99.90;;;;;;5054804;28;20759;-68
2021/09/23 05:18:19;;;;;;;13.73;12.23;;;14.40;99.90;;;;;;5053568;28;20614;-68
2021/09/23 05:20:44;;;;;;;14.63;12.57;;;14.40;99.90;;;;;;5058859;28;20207;-67
2021/09/23 05:23:10;;;;;;;15.53;13.93;;;14.50;99.90;;;;;;5054441;28;20177;-75
2021/09/23 05:25:36;;;;;;;14.30;12.90;;;14.50;99.90;;;;;;5069642;28;20216;-67
2021/09/23 05:28:04;;;;;;;14.60;13.10;;;14.50;99.90;;;;;;5074968;28;20174;-67
2021/09/23 05:30:30;;;;;;;13.83;11.80;;;14.50;99.90;;;;;;5068717;28;20474;-66
2021/09/23 05:32:55;;;;;;;13.77;11.97;;;14.50;99.90;;;;;;5059974;28;20424;-67
2021/09/23 05:35:21;;;;;;;12.33;11.13;;;14.50;99.90;;;;;;5053495;28;20679;-68
2021/09/23 05:37:47;;;;;;;13.53;11.53;;;14.50;99.90;;;;;;5054004;28;20180;-67
2021/09/23 05:40:14;;;;;;;13.50;11.70;;;14.50;99.90;;;;;;5052467;28;20425;-74
2021/09/23 05:42:40;;;;;;;14.43;11.80;;;14.50;99.90;;;;;;5064678;28;20173;-67
2021/09/23 05:45:09;;;;;;;13.73;12.20;;;14.50;99.90;;;;;;5072963;28;20454;-67
2021/09/23 05:47:35;;;;;;;13.30;12.00;;;14.50;99.90;;;;;;5053298;28;20396;-67
2021/09/23 05:50:02;;;;;;;13.50;12.20;;;14.50;99.90;;;;;;5053479;28;20614;-67
2021/09/23 05:52:28;;;;;;;14.00;12.60;;;14.50;99.90;;;;;;5053104;28;20746;-67
2021/09/23 05:54:54;;;;;;;14.03;12.60;;;14.50;99.90;;;;;;5035470;28;20424;-66
2021/09/23 05:57:24;;;;;;;16.73;15.02;;;14.50;99.90;;;;;;5040810;28;20843;-66
2021/09/23 05:59:50;;;;;;;15.47;13.90;;;14.60;99.90;;;;;;5003851;28;20186;-66
2021/09/23 06:02:17;;;;;;;14.03;12.63;;;14.60;99.90;;;;;;5036198;28;20464;-66
2021/09/23 06:04:43;;;;;;;13.00;11.70;;;14.60;99.90;;;;;;5038228;28;20843;-66
2021/09/23 06:07:08;;;;;;;15.67;13.87;;;14.60;99.90;;;;;;5034198;28;20509;-66
2021/09/23 06:09:34;;;;;;;14.70;13.20;;;14.60;99.90;;;;;;5033600;28;20260;-66
2021/09/23 06:12:00;;;;;;;15.27;13.77;;;14.60;99.90;;;;;;5034344;28;20186;-65
2021/09/23 06:14:28;;;;;;;14.30;12.63;;;14.60;99.90;;;;;;5038817;28;20441;-66
2021/09/23 06:16:55;;;;;;;12.90;11.50;;;14.60;99.90;;;;;;5033938;28;20231;-66
2021/09/23 06:19:20;;;;;;;12.60;11.30;;;14.60;99.90;;;;;;5033531;28;20754;-67
2021/09/23 06:21:46;;;;;;;13.10;11.70;;;14.60;99.90;;;;;;5035038;28;20432;-67
2021/09/23 06:24:12;;;;;;;14.70;13.20;;;14.60;99.90;;;;;;5053916;28;20178;-67
2021/09/23 06:26:38;;;;;;;14.20;12.70;;;14.60;99.90;;;;;;5047675;28;20180;-66
2021/09/23 06:29:04;;;;;;;13.77;12.03;;;14.70;99.90;;;;;;5039708;28;20183;-66
2021/09/23 06:31:32;;;;;;;16.73;11.43;;;14.70;99.90;;;;;;5042683;28;20211;-67
2021/09/23 06:33:58;;;;;;;13.77;11.87;;;14.70;99.90;;;;;;5047318;28;20429;-66
2021/09/23 06:36:24;;;;;;;13.50;12.07;;;14.70;99.90;;;;;;5039948;28;20451;-66
2021/09/23 06:38:50;;;;;;;13.17;11.80;;;14.80;99.90;;;;;;5035085;28;20466;-66
2021/09/23 06:41:15;;;;;;;15.10;12.13;;;14.80;99.90;;;;;;5052015;28;20224;-66
2021/09/23 06:43:41;;;;;;;11.00;10.00;;;14.80;99.90;;;;;;5047560;28;20179;-66
2021/09/23 06:46:10;;;;;;;12.70;11.60;;;14.90;99.90;;;;;;5033369;28;20225;-66
2021/09/23 06:48:35;;;;;;;11.90;10.70;;;14.90;99.90;;;;;;5033441;28;20791;-66
2021/09/23 06:51:01;;;;;;;12.50;10.30;;;15.00;99.90;;;;;;5033063;28;20467;-66
2021/09/23 06:53:28;;;;;;;10.40;9.30;;;15.00;99.90;;;;;;5032606;28;20232;-66
2021/09/23 06:55:53;;;;;;;10.47;9.47;;;15.00;99.90;;;;;;5015599;28;20461;-66
2021/09/23 06:58:19;;;;;;;12.57;9.40;;;15.10;99.90;;;;;;5032619;28;20660;-66
2021/09/23 07:00:45;;;;;;;9.20;8.40;;;15.20;99.90;;;;;;5033232;28;20183;-66
2021/09/23 07:03:10;;;;;;;9.13;8.33;;;15.30;99.90;;;;;;5032803;28;20261;-66
2021/09/23 07:05:36;;;;;;;8.90;8.00;;;15.30;99.90;;;;;;5035014;28;20771;-66
2021/09/23 07:08:02;;;;;;;9.60;8.70;;;15.40;99.90;;;;;;5048278;28;20186;-66
2021/09/23 07:10:28;;;;;;;8.40;7.60;;;15.50;99.90;;;;;;5035748;28;20455;-66
2021/09/23 07:12:55;;;;;;;8.93;8.00;;;15.50;99.90;;;;;;5033523;28;20180;-66
2021/09/23 07:15:20;;;;;;;7.73;7.03;;;15.60;99.90;;;;;;5031697;28;20279;-66
2021/09/23 07:17:46;;;;;;;8.50;7.67;;;15.60;99.90;;;;;;5032861;28;20451;-65
2021/09/23 07:20:12;;;;;;;9.40;8.40;;;15.70;99.90;;;;;;5033350;28;20272;-65
2021/09/23 07:22:38;;;;;;;10.07;7.93;;;15.80;99.90;;;;;;5044024;28;20195;-65
2021/09/23 07:25:04;;;;;;;9.30;8.40;;;15.80;99.90;;;;;;5044822;28;20926;-66
2021/09/23 07:27:30;;;;;;;9.33;8.30;;;15.90;99.90;;;;;;5032128;28;20174;-66
2021/09/23 07:29:56;;;;;;;8.50;7.70;;;16.00;99.90;;;;;;5048479;28;20514;-66
2021/09/23 07:32:22;;;;;;;8.80;7.90;;;16.00;99.90;;;;;;5043574;28;20209;-67
2021/09/23 07:34:48;;;;;;;9.20;8.30;;;16.10;99.90;;;;;;5032719;28;20181;-66
2021/09/23 07:37:14;;;;;;;9.50;8.60;;;16.10;99.90;;;;;;5032637;28;20838;-67
2021/09/23 07:39:40;;;;;;;8.57;7.73;;;16.20;99.90;;;;;;5032912;28;20431;-67
2021/09/23 07:42:06;;;;;;;10.67;8.10;;;16.20;99.90;;;;;;5032723;28;20200;-66
2021/09/23 07:44:32;;;;;;;9.50;8.47;;;16.30;99.90;;;;;;5032109;28;20405;-67
2021/09/23 07:46:59;;;;;;;10.70;8.90;;;16.40;99.90;;;;;;5033259;28;20225;-66
2021/09/23 07:49:25;;;;;;;8.70;7.90;;;16.40;99.90;;;;;;5031552;28;20520;-67
2021/09/23 07:51:51;;;;;;;10.23;8.07;;;16.50;99.90;;;;;;5032710;28;20456;-66
2021/09/23 07:54:17;;;;;;;10.60;9.77;;;16.50;99.90;;;;;;5032469;28;20417;-66
2021/09/23 07:56:44;;;;;;;9.80;8.90;;;16.60;99.90;;;;;;5033260;28;20421;-67
2021/09/23 07:59:10;;;;;;;10.60;8.83;;;16.60;99.90;;;;;;5048251;28;20425;-66
2021/09/23 08:01:37;;;;;;;10.33;9.33;;;16.70;99.90;;;;;;5032870;28;20428;-66
2021/09/23 08:04:03;;;;;;;10.57;9.67;;;16.70;99.80;;;;;;5032168;28;20766;-67
2021/09/23 08:06:29;;;;;;;9.87;8.97;;;16.80;99.60;;;;;;5031799;28;20416;-66
2021/09/23 08:08:57;;;;;;;10.13;9.13;;;16.90;99.90;;;;;;5048350;28;20416;-66
2021/09/23 08:11:23;;;;;;;10.17;9.23;;;16.90;99.20;;;;;;5051020;28;20932;-69
2021/09/23 08:13:50;;;;;;;10.80;9.90;;;17.00;99.50;;;;;;5051616;28;20745;-66
2021/09/23 08:16:16;;;;;;;9.90;9.10;;;17.00;99.00;;;;;;5052008;28;20448;-66
2021/09/23 08:18:41;;;;;;;9.53;8.63;;;17.10;99.10;;;;;;5035674;28;20412;-66
2021/09/23 08:21:08;;;;;;;9.10;8.20;;;17.20;99.00;;;;;;5055993;28;20416;-66
2021/09/23 08:23:34;;;;;;;9.70;8.80;;;17.30;99.40;;;;;;5047898;28;20181;-66
2021/09/23 08:25:59;;;;;;;11.90;9.10;;;17.30;98.60;;;;;;5036338;28;20405;-66
2021/09/23 08:28:29;;;;;;;9.67;8.97;;;17.40;98.30;;;;;;5022244;28;20481;-68
2021/09/23 08:30:56;;;;;;;8.80;8.00;;;17.50;98.20;;;;;;5035430;28;20202;-67
2021/09/23 08:33:23;;;;;;;8.67;7.87;;;17.60;98.20;;;;;;5017682;28;20910;-70
2021/09/23 08:35:48;;;;;;;8.17;7.53;;;17.60;97.90;;;;;;5035394;28;20412;-67
2021/09/23 08:38:19;;;;;;;8.70;8.00;;;17.70;97.40;;;;;;5035958;28;20409;-67
2021/09/23 08:40:47;;;;;;;10.10;9.10;;;17.80;97.20;;;;;;5035006;28;20167;-67
2021/09/23 08:43:13;;;;;;;8.90;8.17;;;17.80;97.20;;;;;;5035974;28;20409;-67
2021/09/23 08:45:39;;;;;;;9.47;8.67;;;17.90;97.30;;;;;;5035179;28;20456;-67
2021/09/23 08:48:06;;;;;;;8.83;8.00;;;17.90;96.40;;;;;;5018043;28;21016;-66
2021/09/23 08:50:32;;;;;;;9.47;8.03;;;18.00;96.40;;;;;;5034634;28;20502;-67
2021/09/23 08:52:59;;;;;;;9.10;8.30;;;18.00;96.80;;;;;;5035512;28;20405;-67
2021/09/23 08:55:31;;;;;;;9.17;8.47;;;18.10;96.30;;;;;;5034674;28;20175;-67
2021/09/23 08:57:59;;;;;;;9.27;8.57;;;18.20;96.30;;;;;;5017864;28;20428;-67
2021/09/23 09:00:25;;;;;;;8.87;8.07;;;18.30;95.90;;;;;;5034859;28;20456;-67
2021/09/23 09:03:09;;;;;;;9.50;8.60;;;18.30;95.90;;;;;;5035406;28;20413;-67
2021/09/23 09:05:37;;;;;;;9.20;8.33;;;18.40;95.10;;;;;;5034830;28;20488;-67
2021/09/23 09:08:10;;;;;;;8.60;7.90;;;18.40;95.50;;;;;;5035260;28;20401;-67
2021/09/23 09:10:37;;;;;;;8.23;7.53;;;18.50;95.40;;;;;;5034727;28;20458;-66
2021/09/23 09:13:05;;;;;;;8.83;7.43;;;18.60;95.40;;;;;;5035167;28;20405;-67
2021/09/23 09:15:39;;;;;;;7.57;6.90;;;18.70;95.40;;;;;;5034566;28;20417;-67
2021/09/23 09:18:22;;;;;;;8.07;7.37;;;18.80;94.50;;;;;;5034994;28;20405;-67
2021/09/23 09:20:53;;;;;;;6.60;6.10;;;19.00;94.70;;;;;;5034185;28;20443;-67
2021/09/23 09:23:25;;;;;;;7.23;6.53;;;19.20;94.90;;;;;;5034994;28;20393;-67
2021/09/23 09:25:52;;;;;;;7.50;6.70;;;19.40;94.50;;;;;;5034828;28;20423;-67
2021/09/23 09:28:19;;;;;;;7.37;6.77;;;19.50;93.40;;;;;;5034679;28;20466;-67
2021/09/23 09:30:52;;;;;;;7.37;6.77;;;19.70;94.60;;;;;;5034005;28;20457;-67
2021/09/23 09:33:18;;;;;;;6.67;6.07;;;19.80;92.90;;;;;;5034903;28;20394;-66
2021/09/23 09:35:43;;;;;;;7.67;7.07;;;20.00;92.20;;;;;;5034474;28;20420;-66
2021/09/23 09:38:09;;;;;;;7.07;6.20;;;20.20;91.90;;;;;;5034775;28;20428;-66
2021/09/23 09:40:38;;;;;;;7.60;6.90;;;20.30;91.60;;;;;;5034178;28;20261;-66
2021/09/23 09:43:06;;;;;;;9.33;6.73;;;20.50;91.10;;;;;;5034748;28;20522;-66
2021/09/23 09:45:33;;;;;;;7.73;7.00;;;20.60;90.90;;;;;;5033571;28;20809;-66
2021/09/23 09:48:00;;;;;;;7.13;5.73;;;20.80;91.00;;;;;;5034830;28;20425;-66
2021/09/23 09:50:34;;;;;;;6.93;6.43;;;21.00;91.20;;;;;;5034018;28;20539;-70
2021/09/23 09:53:05;;;;;;;7.53;6.80;;;21.10;90.50;;;;;;5034685;28;20412;-66
2021/09/23 09:55:39;;;;;;;7.67;7.00;;;21.40;90.70;;;;;;5016261;28;20807;-66
2021/09/23 09:58:06;;;;;;;9.00;6.70;;;21.50;89.90;;;;;;5034618;28;20389;-66
2021/09/23 10:00:33;;;;;;;6.67;6.03;;;21.70;90.30;;;;;;5033719;28;20467;-66
2021/09/23 10:02:59;;;;;;;5.80;5.40;;;21.90;89.30;;;;;;5034286;28;20406;-66
2021/09/23 10:05:25;;;;;;;6.33;5.73;;;22.10;89.50;;;;;;5034176;28;20405;-66
2021/09/23 10:07:54;;;;;;;6.13;5.73;;;22.20;87.30;;;;;;5033445;28;20416;-66
2021/09/23 10:10:24;;;;;;;8.33;7.63;;;22.40;85.40;;;;;;5016373;28;20460;-66
2021/09/23 10:12:54;;;;;;;5.70;5.20;;;22.50;85.90;;;;;;5033523;28;20480;-66
2021/09/23 10:15:20;;;;;;;7.87;7.20;;;22.70;84.80;;;;;;5034220;28;20401;-66
2021/09/23 10:17:49;;;;;;;6.30;5.80;;;22.80;86.10;;;;;;5033412;28;20417;-66
2021/09/23 10:20:18;;;;;;;9.33;8.53;;;22.90;83.90;;;;;;5015876;28;20455;-67
2021/09/23 10:22:45;;;;;;;6.80;5.53;;;22.80;81.70;;;;;;5032454;28;20432;-67
2021/09/23 10:25:14;;;;;;;7.40;6.80;;;22.80;83.00;;;;;;5033661;28;20550;-66
2021/09/23 10:27:59;;;;;;;6.10;5.47;;;22.80;80.80;;;;;;5033217;28;20402;-66
2021/09/23 10:30:52;;;;;;;7.70;7.17;;;22.80;82.50;;;;;;5033813;28;20468;-66
2021/09/23 10:33:18;;;;;;;6.30;5.70;;;22.80;81.60;;;;;;5031541;28;20467;-66
2021/09/23 10:35:44;;;;;;;5.50;5.07;;;22.90;82.50;;;;;;5015472;28;20784;-66
2021/09/23 10:38:11;;;;;;;8.60;7.80;;;22.90;81.40;;;;;;5033614;28;20292;-67
2021/09/23 10:40:39;;;;;;;6.23;5.83;;;22.90;82.00;;;;;;5032135;28;20471;-66
2021/09/23 10:43:09;;;;;;;10.43;9.70;;;22.80;80.30;;;;;;5033378;28;20404;-66
2021/09/23 10:45:35;;;;;;;9.40;8.70;;;22.80;79.60;;;;;;5032127;28;20540;-66
2021/09/23 10:48:02;;;;;;;6.20;5.50;;;22.70;79.90;;;;;;5032669;28;20413;-67
2021/09/23 10:50:30;;;;;;;10.13;6.97;;;22.60;78.70;;;;;;5033176;28;20448;-66
2021/09/23 10:52:57;;;;;;;7.77;7.23;;;22.60;79.80;;;;;;5033456;28;20830;-66
2021/09/23 10:55:26;;;;;;;6.20;5.30;;;22.50;81.20;;;;;;5033266;28;20405;-66
2021/09/23 10:57:53;;;;;;;6.40;5.90;;;22.50;81.50;;;;;;5032336;28;20504;-66
2021/09/23 11:00:25;;;;;;;7.20;6.50;;;22.60;80.20;;;;;;5033173;28;20409;-66
2021/09/23 11:02:52;;;;;;;10.33;9.40;;;22.70;79.90;;;;;;5032793;28;20441;-66
2021/09/23 11:05:19;;;;;;;7.07;6.57;;;22.80;82.20;;;;;;5032991;28;20415;-66
2021/09/23 11:07:46;;;;;;;7.60;7.00;;;23.00;80.00;;;;;;5031826;28;20409;-67
2021/09/23 11:10:25;;;;;;;6.30;5.70;;;23.20;79.10;;;;;;5032352;28;20455;-67
2021/09/23 11:12:56;;;;;;;7.03;6.40;;;23.20;77.80;;;;;;5032107;28;20768;-67
2021/09/23 11:15:25;;;;;;;7.20;6.70;;;23.30;76.90;;;;;;5032766;28;20881;-66
2021/09/23 11:17:53;;;;;;;7.30;6.30;;;23.40;77.30;;;;;;5032301;28;20413;-66
2021/09/23 11:20:24;;;;;;;5.47;4.97;;;23.50;78.80;;;;;;5032695;28;20909;-66
2021/09/23 11:23:02;;;;;;;6.60;6.10;;;23.60;79.00;;;;;;5031858;28;20929;-67
2021/09/23 11:25:30;;;;;;;7.30;6.60;;;23.70;76.90;;;;;;5032725;28;20392;-66
2021/09/23 11:27:57;;;;;;;7.00;6.40;;;23.70;76.30;;;;;;5031700;28;20466;-67
2021/09/23 11:30:35;;;;;;;6.30;5.83;;;23.80;75.10;;;;;;5032825;28;20456;-66
2021/09/23 11:33:07;;;;;;;6.30;5.80;;;23.80;74.90;;;;;;5032522;28;20405;-67
2021/09/23 11:35:38;;;;;;;6.80;6.13;;;23.80;74.10;;;;;;5031861;28;20401;-67
2021/09/23 11:38:06;;;;;;;5.87;5.47;;;23.80;74.60;;;;;;5032985;28;20413;-67
2021/09/23 11:40:34;;;;;;;8.10;7.40;;;23.90;73.60;;;;;;5032548;28;20814;-66
2021/09/23 11:43:11;;;;;;;6.43;5.80;;;24.10;73.80;;;;;;5032574;28;20440;-67
2021/09/23 11:45:42;;;;;;;5.63;5.17;;;24.10;70.80;;;;;;5031856;28;20444;-67
2021/09/23 11:48:14;;;;;;;6.93;5.97;;;24.10;70.90;;;;;;5032648;28;20893;-66
2021/09/23 11:50:44;;;;;;;6.20;5.70;;;24.10;70.00;;;;;;5031856;28;20452;-67
2021/09/23 11:53:23;;;;;;;5.60;5.10;;;24.10;69.70;;;;;;5037408;28;20409;-67
2021/09/23 11:56:01;;;;;;;8.80;5.30;;;24.00;69.60;;;;;;5038494;28;20413;-67
2021/09/23 11:58:29;;;;;;;5.90;5.37;;;24.00;70.00;;;;;;5039283;28;20404;-67
2021/09/23 12:00:56;;;;;;;7.53;5.67;;;24.10;70.00;;;;;;5038386;28;20467;-66
2021/09/23 12:03:23;;;;;;;6.40;5.80;;;24.10;70.10;;;;;;5039040;28;20401;-66
2021/09/23 12:05:50;;;;;;;7.07;6.47;;;24.00;71.60;;;;;;5038417;28;20411;-67
2021/09/23 12:08:21;;;;;;;8.23;7.53;;;24.10;72.20;;;;;;5038951;28;20487;-66
2021/09/23 12:10:51;;;;;;;8.30;6.30;;;24.10;71.90;;;;;;5038015;28;20547;-67
2021/09/23 12:13:31;;;;;;;6.30;5.80;;;24.10;70.90;;;;;;5038912;28;20422;-67
2021/09/23 12:15:59;;;;;;;5.73;5.23;;;24.00;71.00;;;;;;5038218;28;20393;-67
2021/09/23 12:18:26;;;;;;;6.37;5.80;;;23.80;69.90;;;;;;5038223;28;20547;-66
2021/09/23 12:20:58;;;;;;;6.80;6.30;;;23.70;69.90;;;;;;5020520;28;20931;-66
2021/09/23 12:23:30;;;;;;;6.93;6.23;;;23.50;71.20;;;;;;5038891;28;20409;-66
2021/09/23 12:26:10;;;;;;;7.73;7.13;;;23.40;71.40;;;;;;5020551;28;20765;-66
2021/09/23 12:28:46;;;;;;;7.10;6.50;;;23.30;71.50;;;;;;5038231;28;20723;-67
2021/09/23 12:31:14;;;;;;;9.93;9.13;;;23.20;73.40;;;;;;5038149;28;20961;-66
2021/09/23 12:33:54;;;;;;;8.00;7.40;;;23.10;72.50;;;;;;5037883;28;20847;-66
2021/09/23 12:36:25;;;;;;;7.57;6.97;;;23.00;72.90;;;;;;5038611;28;20439;-66
2021/09/23 12:39:04;;;;;;;8.60;7.80;;;22.80;72.40;;;;;;5037716;28;20373;-66